createdAt,value
2023-05-09T00:00:26.198Z,77120.88
2023-05-09T00:08:00.025Z,77133.13
2023-05-09T00:15:35.766Z,77143.31
2023-05-09T00:23:09.587Z,77151.50
2023-05-09T00:30:45.148Z,77178.03
2023-05-09T00:38:19.104Z,77188.22
2023-05-09T00:45:54.683Z,77202.53
2023-05-09T00:53:29.103Z,77212.75
2023-05-09T01:01:04.681Z,77218.88
2023-05-09T01:08:46.221Z,77225.00
2023-05-09T01:16:28.919Z,77227.03
2023-05-09T01:24:27.052Z,77231.13
2023-05-09T01:32:06.092Z,77239.28
2023-05-09T01:39:42.632Z,77245.41
2023-05-09T01:47:20.987Z,77245.41
2023-05-09T01:55:14.263Z,77263.78
2023-05-09T02:02:49.820Z,77280.09
2023-05-09T02:10:25.489Z,77284.19
2023-05-09T02:18:00.764Z,77294.41
2023-05-09T02:25:35.751Z,77314.81
2023-05-09T02:33:13.764Z,77320.94
2023-05-09T02:40:50.951Z,77329.09
2023-05-09T02:48:27.799Z,77333.19
2023-05-09T02:56:01.715Z,77347.47
2023-05-09T03:03:37.612Z,77357.69
2023-05-09T03:11:11.647Z,77369.94
2023-05-09T03:18:47.068Z,77365.84
2023-05-09T03:26:21.104Z,77380.16
2023-05-09T03:33:59.451Z,77386.28
2023-05-09T03:41:33.320Z,77392.41
2023-05-09T03:49:08.872Z,77404.66
2023-05-09T04:04:35.755Z,77392.41
2023-05-09T04:12:09.973Z,77384.22
2023-05-09T04:19:45.206Z,77369.94
2023-05-09T04:27:19.291Z,77367.91
2023-05-09T04:34:54.649Z,77355.66
2023-05-09T04:42:40.100Z,77341.34
2023-05-09T04:58:09.196Z,77300.53
2023-05-09T05:05:44.405Z,77284.19
2023-05-09T05:13:18.654Z,77265.81
2023-05-09T05:20:53.951Z,77239.28
2023-05-09T05:28:27.876Z,77204.56
2023-05-09T05:36:03.216Z,77169.88
2023-05-09T05:43:37.106Z,77131.06
2023-05-09T05:51:12.470Z,77084.13
2023-05-09T05:58:46.320Z,77045.31
2023-05-09T06:06:21.935Z,76982.03
2023-05-09T06:13:56.562Z,76975.91
2023-05-09T06:21:34.313Z,76926.91
2023-05-09T06:29:08.345Z,76877.94
2023-05-09T06:36:43.693Z,76841.19
2023-05-09T06:44:17.600Z,76798.31
2023-05-09T06:51:52.903Z,76765.66
2023-05-09T06:59:27.041Z,76722.78
2023-05-09T07:07:08.860Z,76681.97
2023-05-09T07:14:42.882Z,76632.97
2023-05-09T07:22:18.465Z,76637.06
2023-05-09T07:29:55.242Z,76592.13
2023-05-09T07:37:30.747Z,76571.72
2023-05-09T07:45:06.309Z,76543.16
2023-05-09T07:52:41.924Z,76486.00
2023-05-09T08:00:16.656Z,76404.34
2023-05-09T08:07:52.030Z,76379.84
2023-05-09T08:15:26.160Z,76298.22
2023-05-09T08:23:01.722Z,76214.53
2023-05-09T08:30:35.977Z,76141.06
2023-05-09T08:38:11.641Z,76073.72
2023-05-09T08:45:48.628Z,76030.84
2023-05-09T08:53:24.212Z,75994.13
2023-05-09T09:00:59.458Z,75977.78
2023-05-09T09:08:37.092Z,75957.38
2023-05-09T09:16:15.528Z,75906.34
2023-05-09T09:31:46.314Z,75877.78
2023-05-09T09:39:22.153Z,75877.78
2023-05-09T09:54:49.548Z,75765.53
2023-05-09T10:02:25.497Z,75759.41
2023-05-09T10:10:01.183Z,75751.25
2023-05-09T10:17:35.560Z,75771.66
2023-05-09T10:25:19.136Z,75804.31
2023-05-09T10:32:55.267Z,75779.81
2023-05-09T10:40:32.461Z,75773.72
2023-05-09T10:48:09.056Z,75763.50
2023-05-09T10:55:53.184Z,75751.25
2023-05-09T11:03:28.806Z,75759.41
2023-05-09T11:11:08.178Z,75716.56
2023-05-09T11:18:53.625Z,75712.47
2023-05-09T11:26:31.186Z,75677.78
2023-05-09T11:34:06.992Z,75655.34
2023-05-09T11:41:44.343Z,75643.09
2023-05-09T11:49:19.708Z,75608.41
2023-05-09T12:12:44.857Z,75561.47
2023-05-09T12:20:18.909Z,75539.03
2023-05-09T12:27:55.192Z,75545.16
2023-05-09T12:35:29.210Z,75504.34
2023-05-09T12:43:04.597Z,75465.56
2023-05-09T12:50:38.503Z,75469.66
2023-05-09T12:58:16.328Z,75455.38
2023-05-09T13:05:56.403Z,75418.63
2023-05-09T13:21:23.684Z,75392.09
2023-05-09T13:28:59.279Z,75390.06
2023-05-09T13:36:34.045Z,75377.81
2023-05-09T13:44:09.409Z,75339.06
2023-05-09T13:51:43.299Z,75318.66
2023-05-09T13:59:18.735Z,75324.78
2023-05-09T14:06:52.921Z,75302.31
2023-05-09T14:14:28.489Z,75271.72
2023-05-09T14:22:02.427Z,75249.28
2023-05-09T14:37:31.430Z,75222.75
2023-05-09T14:45:10.926Z,75237.03
2023-05-09T14:52:44.911Z,75222.75
2023-05-09T15:08:12.781Z,75194.19
2023-05-09T15:15:48.350Z,75224.78
2023-05-09T15:23:22.958Z,75208.47
2023-05-09T15:31:00.029Z,75208.47
2023-05-09T15:38:35.826Z,75198.25
2023-05-09T15:46:11.179Z,75196.22
2023-05-09T15:53:45.167Z,75183.97
2023-05-09T16:01:21.270Z,75163.56
2023-05-09T16:08:55.268Z,75192.13
2023-05-09T16:16:30.656Z,75181.94
2023-05-09T16:24:05.578Z,75157.44
2023-05-09T16:31:41.198Z,75165.63
2023-05-09T16:39:15.609Z,75196.22
2023-05-09T16:46:50.988Z,75210.50
2023-05-09T16:54:24.866Z,75216.63
2023-05-09T17:02:00.425Z,75232.94
2023-05-09T17:09:34.402Z,75247.22
2023-05-09T17:17:09.669Z,75263.56
2023-05-09T17:24:43.949Z,75271.72
2023-05-09T17:32:19.438Z,75290.06
2023-05-09T17:39:53.707Z,75296.19
2023-05-09T17:47:29.371Z,75334.97
2023-05-09T17:55:04.154Z,75343.13
2023-05-09T18:02:39.761Z,75373.75
2023-05-09T18:10:13.930Z,75379.88
2023-05-09T18:17:49.853Z,75396.19
2023-05-09T18:25:24.779Z,75412.50
2023-05-09T18:33:01.507Z,75432.91
2023-05-09T18:40:37.332Z,75457.41
2023-05-09T18:48:13.563Z,75473.72
2023-05-09T19:03:45.740Z,75510.47
2023-05-09T19:11:20.137Z,75530.88
2023-05-09T19:18:57.795Z,75551.28
2023-05-09T19:26:31.737Z,75561.47
2023-05-09T19:34:07.661Z,75575.75
2023-05-09T19:41:41.829Z,75583.91
2023-05-09T19:49:18.055Z,75594.13
2023-05-09T19:56:52.184Z,75606.38
2023-05-09T20:04:27.522Z,75626.78
2023-05-09T20:12:03.666Z,75628.81
2023-05-09T20:19:38.996Z,75634.94
2023-05-09T20:27:12.936Z,75655.34
2023-05-09T20:34:48.390Z,75655.34
2023-05-09T20:42:23.242Z,75667.59
2023-05-09T20:49:58.966Z,75669.63
2023-05-09T20:57:33.390Z,75673.72
2023-05-09T21:05:11.252Z,75690.03
2023-05-09T21:12:45.480Z,75696.16
2023-05-09T21:20:20.842Z,75706.34
2023-05-09T21:27:54.735Z,75720.66
2023-05-09T21:35:31.007Z,75726.78
2023-05-09T21:50:58.327Z,75757.38
2023-05-09T21:58:32.279Z,75767.59
2023-05-09T22:06:08.251Z,75775.75
2023-05-09T22:13:42.758Z,75800.22
2023-05-09T22:21:18.150Z,75816.56
2023-05-09T22:28:52.137Z,75836.97
2023-05-09T22:36:27.780Z,75853.28
2023-05-09T22:44:01.890Z,75859.41
2023-05-09T22:51:37.316Z,75871.66
2023-05-09T22:59:11.295Z,75881.88
2023-05-09T23:06:46.832Z,75888.00
2023-05-09T23:14:21.001Z,75906.34
2023-05-09T23:21:58.617Z,75908.41
2023-05-09T23:29:33.334Z,75916.56
2023-05-09T23:37:08.771Z,75912.47
2023-05-09T23:44:43.290Z,75920.63
2023-05-09T23:52:18.567Z,75920.63
2023-05-09T23:59:52.458Z,75924.72
